sensor_id;sensor_type;location;lat;lon;timestamp;P1;P2;P0
65574;PMS5003;52216;54.942;73.394;2022-11-18T00:01:45;13.00;13.00;5.00
65574;PMS5003;52216;54.942;73.394;2022-11-18T00:04:48;13.00;12.67;4.00
65574;PMS5003;52216;54.942;73.394;2022-11-18T00:08:01;14.75;13.50;6.00
65574;PMS5003;52216;54.942;73.394;2022-11-18T00:11:06;16.00;15.00;7.33
65574;PMS5003;52216;54.942;73.394;2022-11-18T00:14:17;15.75;14.25;8.00
65574;PMS5003;52216;54.942;73.394;2022-11-18T00:17:20;16.00;15.00;7.00
65574;PMS5003;52216;54.942;73.394;2022-11-18T00:20:23;15.00;13.00;6.00
65574;PMS5003;52216;54.942;73.394;2022-11-18T00:23:30;16.25;15.00;8.00
65574;PMS5003;52216;54.942;73.394;2022-11-18T00:26:32;20.00;16.25;9.75
65574;PMS5003;52216;54.942;73.394;2022-11-18T00:29:39;18.00;16.00;7.25
65574;PMS5003;52216;54.942;73.394;2022-11-18T00:32:52;18.00;16.50;9.00
65574;PMS5003;52216;54.942;73.394;2022-11-18T00:35:54;20.00;18.00;11.00
65574;PMS5003;52216;54.942;73.394;2022-11-18T00:39:06;20.00;17.00;11.00
65574;PMS5003;52216;54.942;73.394;2022-11-18T00:42:13;16.00;15.00;10.00
65574;PMS5003;52216;54.942;73.394;2022-11-18T00:45:45;15.25;15.25;9.50
65574;PMS5003;52216;54.942;73.394;2022-11-18T00:48:59;16.00;15.00;6.67
65574;PMS5003;52216;54.942;73.394;2022-11-18T00:52:02;13.33;13.00;5.00
65574;PMS5003;52216;54.942;73.394;2022-11-18T00:55:04;17.50;15.00;8.50
65574;PMS5003;52216;54.942;73.394;2022-11-18T00:58:06;16.00;14.00;7.25
65574;PMS5003;52216;54.942;73.394;2022-11-18T01:01:14;13.00;11.75;5.00
65574;PMS5003;52216;54.942;73.394;2022-11-18T01:04:17;13.00;11.00;5.00
65574;PMS5003;52216;54.942;73.394;2022-11-18T01:07:19;15.67;14.33;7.67
65574;PMS5003;52216;54.942;73.394;2022-11-18T01:10:23;15.00;13.00;7.00
65574;PMS5003;52216;54.942;73.394;2022-11-18T01:13:26;15.00;13.00;5.00
65574;PMS5003;52216;54.942;73.394;2022-11-18T01:16:34;15.25;13.75;6.00
65574;PMS5003;52216;54.942;73.394;2022-11-18T01:19:41;13.25;11.00;5.00
65574;PMS5003;52216;54.942;73.394;2022-11-18T01:22:43;13.00;11.00;5.00
65574;PMS5003;52216;54.942;73.394;2022-11-18T01:25:46;17.33;13.00;8.00
65574;PMS5003;52216;54.942;73.394;2022-11-18T01:28:55;19.00;15.00;8.00
65574;PMS5003;52216;54.942;73.394;2022-11-18T01:31:58;20.00;18.00;11.00
65574;PMS5003;52216;54.942;73.394;2022-11-18T01:35:00;20.00;18.00;12.00
65574;PMS5003;52216;54.942;73.394;2022-11-18T01:38:02;23.00;20.00;12.00
65574;PMS5003;52216;54.942;73.394;2022-11-18T01:41:04;23.00;20.00;13.00
65574;PMS5003;52216;54.942;73.394;2022-11-18T01:47:30;27.00;22.00;14.00
65574;PMS5003;52216;54.942;73.394;2022-11-18T01:50:34;28.50;22.50;13.00
65574;PMS5003;52216;54.942;73.394;2022-11-18T01:53:39;29.00;23.00;14.00
65574;PMS5003;52216;54.942;73.394;2022-11-18T01:56:48;27.00;22.00;14.00
65574;PMS5003;52216;54.942;73.394;2022-11-18T01:59:56;26.50;21.25;13.00
65574;PMS5003;52216;54.942;73.394;2022-11-18T02:03:04;28.00;23.00;14.00
65574;PMS5003;52216;54.942;73.394;2022-11-18T02:06:12;29.50;22.00;13.50
65574;PMS5003;52216;54.942;73.394;2022-11-18T02:09:14;31.50;25.00;16.00
65574;PMS5003;52216;54.942;73.394;2022-11-18T02:12:17;32.00;26.50;16.50
65574;PMS5003;52216;54.942;73.394;2022-11-18T02:15:36;35.60;28.00;17.00
65574;PMS5003;52216;54.942;73.394;2022-11-18T02:18:59;32.75;25.50;15.25
65574;PMS5003;52216;54.942;73.394;2022-11-18T02:35:05;38.25;29.25;18.00
65574;PMS5003;52216;54.942;73.394;2022-11-18T02:38:15;39.33;31.00;19.33
65574;PMS5003;52216;54.942;73.394;2022-11-18T02:41:21;42.00;32.00;20.00
65574;PMS5003;52216;54.942;73.394;2022-11-18T02:44:27;42.00;32.00;20.00
65574;PMS5003;52216;54.942;73.394;2022-11-18T02:47:35;42.00;32.00;20.00
65574;PMS5003;52216;54.942;73.394;2022-11-18T02:50:38;40.00;31.00;19.00
65574;PMS5003;52216;54.942;73.394;2022-11-18T02:53:42;40.50;32.00;20.00
65574;PMS5003;52216;54.942;73.394;2022-11-18T02:56:45;41.00;32.00;20.00
65574;PMS5003;52216;54.942;73.394;2022-11-18T02:59:50;39.33;31.00;19.67
65574;PMS5003;52216;54.942;73.394;2022-11-18T03:09:35;40.00;32.00;21.00
65574;PMS5003;52216;54.942;73.394;2022-11-18T03:15:59;39.00;30.67;19.00
65574;PMS5003;52216;54.942;73.394;2022-11-18T03:25:33;38.25;30.00;19.00
65574;PMS5003;52216;54.942;73.394;2022-11-18T03:28:39;36.00;28.00;18.00
65574;PMS5003;52216;54.942;73.394;2022-11-18T03:31:48;38.00;28.67;18.00
65574;PMS5003;52216;54.942;73.394;2022-11-18T03:34:55;40.40;30.60;19.00
65574;PMS5003;52216;54.942;73.394;2022-11-18T03:38:01;38.75;29.50;17.50
65574;PMS5003;52216;54.942;73.394;2022-11-18T03:41:07;36.00;27.33;17.00
65574;PMS5003;52216;54.942;73.394;2022-11-18T03:44:13;41.20;31.60;19.60
65574;PMS5003;52216;54.942;73.394;2022-11-18T03:47:25;41.75;32.00;19.00
65574;PMS5003;52216;54.942;73.394;2022-11-18T03:50:37;38.40;31.20;19.00
65574;PMS5003;52216;54.942;73.394;2022-11-18T03:53:41;39.75;31.00;19.00
65574;PMS5003;52216;54.942;73.394;2022-11-18T03:56:53;38.00;30.00;18.00
65574;PMS5003;52216;54.942;73.394;2022-11-18T04:00:06;38.25;30.75;18.25
65574;PMS5003;52216;54.942;73.394;2022-11-18T04:03:09;38.00;29.00;18.00
65574;PMS5003;52216;54.942;73.394;2022-11-18T04:06:18;35.25;28.00;18.00
65574;PMS5003;52216;54.942;73.394;2022-11-18T04:09:32;38.50;30.50;18.50
65574;PMS5003;52216;54.942;73.394;2022-11-18T04:12:42;39.00;30.25;19.00
65574;PMS5003;52216;54.942;73.394;2022-11-18T04:15:45;39.25;30.25;19.00
65574;PMS5003;52216;54.942;73.394;2022-11-18T04:18:48;38.00;30.00;19.00
65574;PMS5003;52216;54.942;73.394;2022-11-18T04:21:50;35.25;29.00;18.00
65574;PMS5003;52216;54.942;73.394;2022-11-18T04:24:52;37.50;29.75;18.25
65574;PMS5003;52216;54.942;73.394;2022-11-18T04:27:54;39.00;31.00;19.00
65574;PMS5003;52216;54.942;73.394;2022-11-18T04:31:06;36.00;29.00;17.00
65574;PMS5003;52216;54.942;73.394;2022-11-18T04:34:19;36.60;29.00;17.00
65574;PMS5003;52216;54.942;73.394;2022-11-18T04:37:22;38.00;29.00;19.00
65574;PMS5003;52216;54.942;73.394;2022-11-18T04:40:29;38.00;29.00;19.00
65574;PMS5003;52216;54.942;73.394;2022-11-18T04:43:31;38.50;29.00;19.00
65574;PMS5003;52216;54.942;73.394;2022-11-18T04:46:33;38.75;29.00;19.00
65574;PMS5003;52216;54.942;73.394;2022-11-18T04:49:45;35.00;27.50;17.00
65574;PMS5003;52216;54.942;73.394;2022-11-18T04:52:48;31.00;26.00;17.00
65574;PMS5003;52216;54.942;73.394;2022-11-18T04:55:50;29.00;24.00;15.00
65574;PMS5003;52216;54.942;73.394;2022-11-18T04:59:02;28.50;23.00;14.00
65574;PMS5003;52216;54.942;73.394;2022-11-18T05:02:10;28.00;23.00;14.00
65574;PMS5003;52216;54.942;73.394;2022-11-18T05:05:14;27.00;23.00;14.00
65574;PMS5003;52216;54.942;73.394;2022-11-18T05:08:16;26.00;21.00;13.00
65574;PMS5003;52216;54.942;73.394;2022-11-18T05:11:19;23.00;19.00;12.00
65574;PMS5003;52216;54.942;73.394;2022-11-18T05:14:45;19.00;15.25;8.50
65574;PMS5003;52216;54.942;73.394;2022-11-18T05:17:47;15.00;12.00;5.00
65574;PMS5003;52216;54.942;73.394;2022-11-18T05:20:49;13.25;12.00;4.00
65574;PMS5003;52216;54.942;73.394;2022-11-18T05:23:55;12.00;11.00;4.50
65574;PMS5003;52216;54.942;73.394;2022-11-18T05:27:07;15.00;14.50;6.50
65574;PMS5003;52216;54.942;73.394;2022-11-18T05:30:09;15.50;14.00;5.25
65574;PMS5003;52216;54.942;73.394;2022-11-18T05:33:12;20.75;18.50;9.00
65574;PMS5003;52216;54.942;73.394;2022-11-18T05:36:19;21.00;17.00;11.00
65574;PMS5003;52216;54.942;73.394;2022-11-18T05:39:27;20.00;17.00;10.00
65574;PMS5003;52216;54.942;73.394;2022-11-18T05:42:30;16.00;16.00;10.00
65574;PMS5003;52216;54.942;73.394;2022-11-18T05:45:51;19.50;19.00;11.75
65574;PMS5003;52216;54.942;73.394;2022-11-18T05:48:58;22.50;19.50;12.00
65574;PMS5003;52216;54.942;73.394;2022-11-18T05:52:05;18.00;17.00;11.00
65574;PMS5003;52216;54.942;73.394;2022-11-18T05:55:17;19.00;16.00;11.00
65574;PMS5003;52216;54.942;73.394;2022-11-18T05:58:32;14.00;12.00;7.50
65574;PMS5003;52216;54.942;73.394;2022-11-18T06:01:38;14.00;12.25;5.00
65574;PMS5003;52216;54.942;73.394;2022-11-18T06:07:44;13.00;10.00;5.00
65574;PMS5003;52216;54.942;73.394;2022-11-18T06:10:47;8.00;7.50;3.00
65574;PMS5003;52216;54.942;73.394;2022-11-18T06:13:56;8.75;5.00;3.25
65574;PMS5003;52216;54.942;73.394;2022-11-18T06:17:16;9.25;7.00;4.00
65574;PMS5003;52216;54.942;73.394;2022-11-18T06:20:28;10.00;8.25;3.25
65574;PMS5003;52216;54.942;73.394;2022-11-18T06:23:33;7.25;4.75;1.25
65574;PMS5003;52216;54.942;73.394;2022-11-18T06:26:37;7.00;5.00;2.00
65574;PMS5003;52216;54.942;73.394;2022-11-18T06:29:40;7.00;5.00;1.00
65574;PMS5003;52216;54.942;73.394;2022-11-18T06:32:43;7.00;5.00;2.50
65574;PMS5003;52216;54.942;73.394;2022-11-18T06:35:46;5.25;4.75;2.00
65574;PMS5003;52216;54.942;73.394;2022-11-18T06:38:49;5.00;4.00;1.00
65574;PMS5003;52216;54.942;73.394;2022-11-18T06:41:52;4.00;3.00;1.00
65574;PMS5003;52216;54.942;73.394;2022-11-18T06:44:55;4.00;4.00;1.00
65574;PMS5003;52216;54.942;73.394;2022-11-18T06:47:58;5.00;4.50;2.00
65574;PMS5003;52216;54.942;73.394;2022-11-18T06:51:06;6.00;6.00;3.00
65574;PMS5003;52216;54.942;73.394;2022-11-18T06:54:10;5.00;5.00;1.00
65574;PMS5003;52216;54.942;73.394;2022-11-18T06:57:12;3.00;2.50;0.00
65574;PMS5003;52216;54.942;73.394;2022-11-18T07:00:15;3.00;2.00;0.00
65574;PMS5003;52216;54.942;73.394;2022-11-18T07:03:18;3.00;3.00;0.00
65574;PMS5003;52216;54.942;73.394;2022-11-18T07:06:23;4.00;4.00;1.00
65574;PMS5003;52216;54.942;73.394;2022-11-18T07:09:36;5.00;5.00;1.00
65574;PMS5003;52216;54.942;73.394;2022-11-18T07:12:40;3.00;3.00;1.00
65574;PMS5003;52216;54.942;73.394;2022-11-18T07:15:42;2.25;2.00;1.00
65574;PMS5003;52216;54.942;73.394;2022-11-18T07:18:48;3.00;3.00;1.00
65574;PMS5003;52216;54.942;73.394;2022-11-18T07:21:51;2.00;1.00;0.00
65574;PMS5003;52216;54.942;73.394;2022-11-18T07:24:54;4.00;2.00;1.00
65574;PMS5003;52216;54.942;73.394;2022-11-18T07:27:57;4.00;2.75;0.00
65574;PMS5003;52216;54.942;73.394;2022-11-18T07:31:03;2.75;2.50;0.00
65574;PMS5003;52216;54.942;73.394;2022-11-18T07:34:12;2.00;1.00;0.00
65574;PMS5003;52216;54.942;73.394;2022-11-18T07:37:15;3.00;2.00;0.00
65574;PMS5003;52216;54.942;73.394;2022-11-18T07:40:28;5.00;3.00;0.00
65574;PMS5003;52216;54.942;73.394;2022-11-18T07:43:31;3.00;3.00;0.00
65574;PMS5003;52216;54.942;73.394;2022-11-18T07:46:35;3.00;2.00;1.00
65574;PMS5003;52216;54.942;73.394;2022-11-18T07:49:43;3.00;3.00;1.00
65574;PMS5003;52216;54.942;73.394;2022-11-18T07:52:53;1.00;0.00;0.00
65574;PMS5003;52216;54.942;73.394;2022-11-18T07:56:07;1.00;0.00;0.00
65574;PMS5003;52216;54.942;73.394;2022-11-18T07:59:15;0.00;0.00;0.00
65574;PMS5003;52216;54.942;73.394;2022-11-18T08:02:18;1.00;1.00;0.00
65574;PMS5003;52216;54.942;73.394;2022-11-18T08:05:21;1.00;1.00;0.00
65574;PMS5003;52216;54.942;73.394;2022-11-18T08:08:25;1.00;1.00;0.00
65574;PMS5003;52216;54.942;73.394;2022-11-18T08:11:28;0.00;0.00;0.00
65574;PMS5003;52216;54.942;73.394;2022-11-18T08:14:31;0.00;0.00;0.00
65574;PMS5003;52216;54.942;73.394;2022-11-18T08:17:34;0.00;0.00;0.00
65574;PMS5003;52216;54.942;73.394;2022-11-18T08:20:37;1.00;0.00;0.00
65574;PMS5003;52216;54.942;73.394;2022-11-18T08:23:50;1.00;0.25;0.00
65574;PMS5003;52216;54.942;73.394;2022-11-18T08:26:53;1.00;1.00;0.00
65574;PMS5003;52216;54.942;73.394;2022-11-18T08:30:06;1.50;1.00;0.00
65574;PMS5003;52216;54.942;73.394;2022-11-18T08:33:09;3.00;3.00;0.00
65574;PMS5003;52216;54.942;73.394;2022-11-18T08:36:16;3.00;3.00;0.00
65574;PMS5003;52216;54.942;73.394;2022-11-18T08:39:18;1.00;1.00;0.00
65574;PMS5003;52216;54.942;73.394;2022-11-18T08:42:21;2.75;1.75;0.50
65574;PMS5003;52216;54.942;73.394;2022-11-18T08:45:23;2.00;1.00;0.00
65574;PMS5003;52216;54.942;73.394;2022-11-18T08:48:25;3.00;1.00;0.00
65574;PMS5003;52216;54.942;73.394;2022-11-18T08:51:28;1.00;1.00;0.00
65574;PMS5003;52216;54.942;73.394;2022-11-18T08:54:31;1.00;1.00;0.00
65574;PMS5003;52216;54.942;73.394;2022-11-18T08:57:34;1.50;1.00;0.00
65574;PMS5003;52216;54.942;73.394;2022-11-18T09:00:37;1.00;1.00;0.00
65574;PMS5003;52216;54.942;73.394;2022-11-18T09:03:49;2.00;1.00;0.00
65574;PMS5003;52216;54.942;73.394;2022-11-18T09:06:53;3.50;3.00;0.00
65574;PMS5003;52216;54.942;73.394;2022-11-18T09:09:56;2.00;2.00;0.00
65574;PMS5003;52216;54.942;73.394;2022-11-18T09:13:04;1.00;1.00;0.00
65574;PMS5003;52216;54.942;73.394;2022-11-18T09:16:07;0.00;0.00;0.00
65574;PMS5003;52216;54.942;73.394;2022-11-18T09:19:10;1.00;1.00;0.00
65574;PMS5003;52216;54.942;73.394;2022-11-18T09:22:13;1.00;1.00;0.00
65574;PMS5003;52216;54.942;73.394;2022-11-18T09:25:20;1.00;1.00;0.00
65574;PMS5003;52216;54.942;73.394;2022-11-18T09:28:23;2.00;1.00;0.00
65574;PMS5003;52216;54.942;73.394;2022-11-18T09:31:30;3.00;3.00;0.00
65574;PMS5003;52216;54.942;73.394;2022-11-18T09:34:33;2.00;2.00;0.00
65574;PMS5003;52216;54.942;73.394;2022-11-18T09:37:35;3.00;2.00;0.25
65574;PMS5003;52216;54.942;73.394;2022-11-18T09:40:49;1.00;1.00;0.00
65574;PMS5003;52216;54.942;73.394;2022-11-18T09:44:04;2.50;1.00;0.00
65574;PMS5003;52216;54.942;73.394;2022-11-18T09:50:20;0.50;0.00;0.00
65574;PMS5003;52216;54.942;73.394;2022-11-18T09:53:24;0.00;0.00;0.00
65574;PMS5003;52216;54.942;73.394;2022-11-18T09:56:27;1.00;1.00;0.00
65574;PMS5003;52216;54.942;73.394;2022-11-18T09:59:30;1.00;0.25;0.00
65574;PMS5003;52216;54.942;73.394;2022-11-18T10:09:19;1.00;0.00;0.00
65574;PMS5003;52216;54.942;73.394;2022-11-18T10:15:49;1.00;1.00;0.00
65574;PMS5003;52216;54.942;73.394;2022-11-18T10:19:10;0.00;0.00;0.00
65574;PMS5003;52216;54.942;73.394;2022-11-18T10:25:24;0.00;0.00;0.00
65574;PMS5003;52216;54.942;73.394;2022-11-18T10:28:28;1.00;1.00;0.00
65574;PMS5003;52216;54.942;73.394;2022-11-18T10:31:32;2.50;1.50;0.00
65574;PMS5003;52216;54.942;73.394;2022-11-18T10:34:51;1.00;1.00;0.00
65574;PMS5003;52216;54.942;73.394;2022-11-18T10:38:06;3.00;3.00;0.00
65574;PMS5003;52216;54.942;73.394;2022-11-18T10:41:23;2.75;1.00;0.00
65574;PMS5003;52216;54.942;73.394;2022-11-18T10:47:31;1.00;1.00;0.00
65574;PMS5003;52216;54.942;73.394;2022-11-18T10:50:39;1.00;1.00;0.00
65574;PMS5003;52216;54.942;73.394;2022-11-18T10:53:42;2.50;1.50;0.00
65574;PMS5003;52216;54.942;73.394;2022-11-18T10:59:56;2.00;2.00;0.00
65574;PMS5003;52216;54.942;73.394;2022-11-18T11:02:59;2.00;2.00;0.00
65574;PMS5003;52216;54.942;73.394;2022-11-18T11:06:12;3.00;2.75;0.00
65574;PMS5003;52216;54.942;73.394;2022-11-18T11:09:25;2.50;2.00;0.00
65574;PMS5003;52216;54.942;73.394;2022-11-18T11:12:28;3.00;3.00;0.00
65574;PMS5003;52216;54.942;73.394;2022-11-18T11:15:34;4.00;3.00;0.00
65574;PMS5003;52216;54.942;73.394;2022-11-18T11:18:38;3.00;1.25;1.00
65574;PMS5003;52216;54.942;73.394;2022-11-18T11:21:43;2.75;2.75;0.00
65574;PMS5003;52216;54.942;73.394;2022-11-18T11:24:46;5.00;4.50;1.00
65574;PMS5003;52216;54.942;73.394;2022-11-18T11:37:57;3.00;3.00;0.00
65574;PMS5003;52216;54.942;73.394;2022-11-18T11:41:26;1.00;1.00;0.00
65574;PMS5003;52216;54.942;73.394;2022-11-18T12:01:26;5.50;3.50;1.00
65574;PMS5003;52216;54.942;73.394;2022-11-18T12:04:34;6.75;5.00;1.25
65574;PMS5003;52216;54.942;73.394;2022-11-18T12:07:46;5.00;3.00;1.25
65574;PMS5003;52216;54.942;73.394;2022-11-18T12:17:32;1.75;1.75;0.00
65574;PMS5003;52216;54.942;73.394;2022-11-18T12:20:50;2.00;2.00;0.00
65574;PMS5003;52216;54.942;73.394;2022-11-18T12:30:31;3.00;3.00;1.00
65574;PMS5003;52216;54.942;73.394;2022-11-18T12:33:40;3.00;3.00;1.00
65574;PMS5003;52216;54.942;73.394;2022-11-18T12:36:48;4.00;4.00;1.75
65574;PMS5003;52216;54.942;73.394;2022-11-18T12:42:57;7.00;6.00;1.25
65574;PMS5003;52216;54.942;73.394;2022-11-18T12:55:42;9.75;8.50;5.00
65574;PMS5003;52216;54.942;73.394;2022-11-18T12:58:51;13.00;12.00;5.00
65574;PMS5003;52216;54.942;73.394;2022-11-18T13:02:03;14.00;12.00;5.00
65574;PMS5003;52216;54.942;73.394;2022-11-18T13:05:21;15.00;13.00;6.00
65574;PMS5003;52216;54.942;73.394;2022-11-18T13:08:33;14.25;13.00;6.00
65574;PMS5003;52216;54.942;73.394;2022-11-18T13:11:40;17.25;15.50;8.00
65574;PMS5003;52216;54.942;73.394;2022-11-18T13:14:55;18.50;17.00;10.00
65574;PMS5003;52216;54.942;73.394;2022-11-18T13:18:19;18.00;15.75;9.75
65574;PMS5003;52216;54.942;73.394;2022-11-18T13:21:27;18.00;16.00;10.00
65574;PMS5003;52216;54.942;73.394;2022-11-18T13:24:53;16.00;14.00;7.00
65574;PMS5003;52216;54.942;73.394;2022-11-18T13:28:11;15.00;15.00;6.33
65574;PMS5003;52216;54.942;73.394;2022-11-18T13:31:39;15.00;13.00;5.00
65574;PMS5003;52216;54.942;73.394;2022-11-18T13:34:45;14.33;13.33;5.00
65574;PMS5003;52216;54.942;73.394;2022-11-18T13:37:50;14.50;14.00;6.50
65574;PMS5003;52216;54.942;73.394;2022-11-18T13:40:54;10.00;10.00;3.00
65574;PMS5003;52216;54.942;73.394;2022-11-18T13:47:24;14.00;13.75;4.00
65574;PMS5003;52216;54.942;73.394;2022-11-18T13:50:34;13.67;12.00;5.00
65574;PMS5003;52216;54.942;73.394;2022-11-18T13:53:37;12.75;11.25;3.25
65574;PMS5003;52216;54.942;73.394;2022-11-18T13:56:42;12.00;10.00;4.00
65574;PMS5003;52216;54.942;73.394;2022-11-18T13:59:50;10.75;8.00;3.00
65574;PMS5003;52216;54.942;73.394;2022-11-18T14:03:16;10.00;8.00;4.00
65574;PMS5003;52216;54.942;73.394;2022-11-18T14:06:30;6.75;6.00;3.00
65574;PMS5003;52216;54.942;73.394;2022-11-18T14:09:33;8.00;6.00;3.25
65574;PMS5003;52216;54.942;73.394;2022-11-18T14:12:42;11.50;9.00;3.75
65574;PMS5003;52216;54.942;73.394;2022-11-18T14:15:53;11.00;7.25;3.00
65574;PMS5003;52216;54.942;73.394;2022-11-18T14:18:58;12.00;8.00;3.50
65574;PMS5003;52216;54.942;73.394;2022-11-18T14:22:04;13.00;12.00;5.50
65574;PMS5003;52216;54.942;73.394;2022-11-18T14:25:19;17.00;15.00;7.00
65574;PMS5003;52216;54.942;73.394;2022-11-18T14:28:33;17.00;15.50;7.50
65574;PMS5003;52216;54.942;73.394;2022-11-18T14:31:38;17.00;15.00;5.00
65574;PMS5003;52216;54.942;73.394;2022-11-18T14:34:40;15.00;13.00;5.00
65574;PMS5003;52216;54.942;73.394;2022-11-18T14:37:47;16.75;14.00;5.00
65574;PMS5003;52216;54.942;73.394;2022-11-18T14:40:55;12.00;10.00;3.00
65574;PMS5003;52216;54.942;73.394;2022-11-18T14:44:04;11.00;8.00;3.00
65574;PMS5003;52216;54.942;73.394;2022-11-18T14:47:20;12.00;8.75;3.00
65574;PMS5003;52216;54.942;73.394;2022-11-18T14:50:24;11.75;10.75;3.00
65574;PMS5003;52216;54.942;73.394;2022-11-18T14:53:27;10.00;8.50;3.00
65574;PMS5003;52216;54.942;73.394;2022-11-18T14:56:30;9.75;8.00;3.00
65574;PMS5003;52216;54.942;73.394;2022-11-18T14:59:33;9.50;7.75;3.00
65574;PMS5003;52216;54.942;73.394;2022-11-18T15:02:38;6.00;5.00;1.75
65574;PMS5003;52216;54.942;73.394;2022-11-18T15:05:41;6.00;6.00;2.00
65574;PMS5003;52216;54.942;73.394;2022-11-18T15:08:50;7.25;6.75;3.00
65574;PMS5003;52216;54.942;73.394;2022-11-18T15:11:54;7.50;6.50;3.00
65574;PMS5003;52216;54.942;73.394;2022-11-18T15:15:07;8.75;8.00;3.50
65574;PMS5003;52216;54.942;73.394;2022-11-18T15:18:10;11.00;11.00;4.00
65574;PMS5003;52216;54.942;73.394;2022-11-18T15:21:23;11.50;10.50;3.00
65574;PMS5003;52216;54.942;73.394;2022-11-18T15:24:27;11.50;8.00;3.00
65574;PMS5003;52216;54.942;73.394;2022-11-18T15:27:30;11.50;9.25;5.00
65574;PMS5003;52216;54.942;73.394;2022-11-18T15:30:43;12.00;10.00;3.00
65574;PMS5003;52216;54.942;73.394;2022-11-18T15:33:46;13.00;11.50;3.25
65574;PMS5003;52216;54.942;73.394;2022-11-18T15:36:55;13.25;12.25;5.00
65574;PMS5003;52216;54.942;73.394;2022-11-18T15:39:57;13.00;12.75;5.00
65574;PMS5003;52216;54.942;73.394;2022-11-18T15:43:01;13.00;11.50;5.00
65574;PMS5003;52216;54.942;73.394;2022-11-18T15:46:03;10.00;9.25;3.00
65574;PMS5003;52216;54.942;73.394;2022-11-18T15:49:11;11.00;8.00;3.00
65574;PMS5003;52216;54.942;73.394;2022-11-18T15:52:15;11.00;6.00;3.00
65574;PMS5003;52216;54.942;73.394;2022-11-18T15:55:18;11.00;8.00;3.00
65574;PMS5003;52216;54.942;73.394;2022-11-18T15:58:22;11.50;7.75;3.50
65574;PMS5003;52216;54.942;73.394;2022-11-18T16:01:26;10.00;8.00;3.00
65574;PMS5003;52216;54.942;73.394;2022-11-18T16:04:34;7.00;5.00;1.00
65574;PMS5003;52216;54.942;73.394;2022-11-18T16:07:37;5.00;5.00;2.00
65574;PMS5003;52216;54.942;73.394;2022-11-18T16:10:41;6.00;6.00;3.00
65574;PMS5003;52216;54.942;73.394;2022-11-18T16:14:06;8.00;8.00;3.00
65574;PMS5003;52216;54.942;73.394;2022-11-18T16:17:09;8.00;5.50;3.00
65574;PMS5003;52216;54.942;73.394;2022-11-18T16:20:12;8.00;6.00;3.00
65574;PMS5003;52216;54.942;73.394;2022-11-18T16:23:15;8.00;7.75;3.00
65574;PMS5003;52216;54.942;73.394;2022-11-18T16:26:18;10.25;8.25;4.00
65574;PMS5003;52216;54.942;73.394;2022-11-18T16:29:22;10.00;8.00;3.00
65574;PMS5003;52216;54.942;73.394;2022-11-18T16:32:28;12.00;8.25;3.00
65574;PMS5003;52216;54.942;73.394;2022-11-18T16:35:30;12.00;10.00;4.00
65574;PMS5003;52216;54.942;73.394;2022-11-18T16:38:43;9.75;9.50;3.00
65574;PMS5003;52216;54.942;73.394;2022-11-18T16:41:46;9.00;8.00;3.00
65574;PMS5003;52216;54.942;73.394;2022-11-18T16:44:49;11.50;10.75;4.75
65574;PMS5003;52216;54.942;73.394;2022-11-18T16:47:51;11.25;10.00;4.00
65574;PMS5003;52216;54.942;73.394;2022-11-18T16:54:17;8.50;6.00;3.00
65574;PMS5003;52216;54.942;73.394;2022-11-18T16:57:20;9.25;6.25;3.25
65574;PMS5003;52216;54.942;73.394;2022-11-18T17:00:24;10.50;8.25;4.00
65574;PMS5003;52216;54.942;73.394;2022-11-18T17:03:31;12.00;10.00;4.00
65574;PMS5003;52216;54.942;73.394;2022-11-18T17:06:34;11.50;10.00;3.00
65574;PMS5003;52216;54.942;73.394;2022-11-18T17:09:37;10.00;8.00;3.25
65574;PMS5003;52216;54.942;73.394;2022-11-18T17:12:46;11.75;9.50;3.25
65574;PMS5003;52216;54.942;73.394;2022-11-18T17:15:49;11.00;8.00;3.00
65574;PMS5003;52216;54.942;73.394;2022-11-18T17:18:54;10.00;8.00;3.00
65574;PMS5003;52216;54.942;73.394;2022-11-18T17:21:58;10.00;8.00;3.00
65574;PMS5003;52216;54.942;73.394;2022-11-18T17:25:01;9.00;7.00;3.00
65574;PMS5003;52216;54.942;73.394;2022-11-18T17:28:09;7.00;5.25;2.00
65574;PMS5003;52216;54.942;73.394;2022-11-18T17:31:13;3.00;3.00;1.00
65574;PMS5003;52216;54.942;73.394;2022-11-18T17:34:26;3.00;3.00;1.00
65574;PMS5003;52216;54.942;73.394;2022-11-18T17:37:29;4.75;4.00;1.00
65574;PMS5003;52216;54.942;73.394;2022-11-18T17:40:41;7.25;6.50;2.00
65574;PMS5003;52216;54.942;73.394;2022-11-18T17:43:44;9.00;7.00;2.75
65574;PMS5003;52216;54.942;73.394;2022-11-18T17:46:48;9.50;5.00;2.00
65574;PMS5003;52216;54.942;73.394;2022-11-18T17:49:53;7.00;4.00;2.00
65574;PMS5003;52216;54.942;73.394;2022-11-18T17:52:56;5.00;4.00;2.00
65574;PMS5003;52216;54.942;73.394;2022-11-18T17:56:01;7.00;5.00;2.50
65574;PMS5003;52216;54.942;73.394;2022-11-18T17:59:13;3.00;3.00;1.00
65574;PMS5003;52216;54.942;73.394;2022-11-18T18:02:18;3.00;3.00;1.00
65574;PMS5003;52216;54.942;73.394;2022-11-18T18:05:22;3.00;3.00;1.00
65574;PMS5003;52216;54.942;73.394;2022-11-18T18:08:25;2.00;2.00;1.00
65574;PMS5003;52216;54.942;73.394;2022-11-18T18:11:27;1.00;1.00;0.00
65574;PMS5003;52216;54.942;73.394;2022-11-18T18:14:30;2.00;2.00;1.00
65574;PMS5003;52216;54.942;73.394;2022-11-18T18:17:33;1.75;1.50;0.00
65574;PMS5003;52216;54.942;73.394;2022-11-18T18:20:36;2.00;2.00;0.00
65574;PMS5003;52216;54.942;73.394;2022-11-18T18:23:45;2.00;1.75;0.00
65574;PMS5003;52216;54.942;73.394;2022-11-18T18:26:58;3.00;1.50;0.00
65574;PMS5003;52216;54.942;73.394;2022-11-18T18:30:02;2.00;2.00;0.00
65574;PMS5003;52216;54.942;73.394;2022-11-18T18:33:07;1.33;1.00;1.00
65574;PMS5003;52216;54.942;73.394;2022-11-18T18:36:20;3.00;2.50;1.00
65574;PMS5003;52216;54.942;73.394;2022-11-18T18:39:24;3.00;3.00;1.00
65574;PMS5003;52216;54.942;73.394;2022-11-18T18:42:27;3.00;3.00;0.00
65574;PMS5003;52216;54.942;73.394;2022-11-18T18:45:30;3.00;3.00;1.00
65574;PMS5003;52216;54.942;73.394;2022-11-18T18:48:51;3.33;3.00;1.00
65574;PMS5003;52216;54.942;73.394;2022-11-18T18:52:03;5.00;3.00;1.00
65574;PMS5003;52216;54.942;73.394;2022-11-18T18:55:06;3.00;3.00;1.00
65574;PMS5003;52216;54.942;73.394;2022-11-18T18:58:13;2.00;2.00;0.00
65574;PMS5003;52216;54.942;73.394;2022-11-18T19:01:27;2.00;2.00;0.00
65574;PMS5003;52216;54.942;73.394;2022-11-18T19:04:29;3.00;2.67;0.00
65574;PMS5003;52216;54.942;73.394;2022-11-18T19:07:31;4.00;3.00;0.00
65574;PMS5003;52216;54.942;73.394;2022-11-18T19:10:37;5.00;5.00;1.00
65574;PMS5003;52216;54.942;73.394;2022-11-18T19:13:40;5.00;3.25;1.00
65574;PMS5003;52216;54.942;73.394;2022-11-18T19:16:54;4.00;3.50;1.00
65574;PMS5003;52216;54.942;73.394;2022-11-18T19:19:56;5.25;5.00;1.00
65574;PMS5003;52216;54.942;73.394;2022-11-18T19:23:17;4.50;4.50;1.00
65574;PMS5003;52216;54.942;73.394;2022-11-18T19:26:22;7.00;5.50;3.00
65574;PMS5003;52216;54.942;73.394;2022-11-18T19:29:25;7.00;6.00;3.00
65574;PMS5003;52216;54.942;73.394;2022-11-18T19:32:28;7.00;5.00;3.00
65574;PMS5003;52216;54.942;73.394;2022-11-18T19:35:31;5.00;5.00;2.50
65574;PMS5003;52216;54.942;73.394;2022-11-18T19:38:34;6.00;4.25;1.00